createdAt,value
2019-02-06T10:44:29.049Z,1016.31
2019-02-06T10:45:29.091Z,1016.27
2019-02-06T10:47:23.220Z,1016.29
2019-02-06T10:48:23.206Z,1016.28
2019-02-06T10:49:23.220Z,1016.24
2019-02-06T10:50:23.355Z,1016.20
2019-02-06T10:51:23.253Z,1016.17
2019-02-06T10:52:23.277Z,1016.17
2019-02-06T10:53:23.286Z,1016.14
2019-02-06T10:54:23.310Z,1016.15
2019-02-06T10:55:23.322Z,1016.12
2019-02-06T10:56:23.341Z,1016.11
2019-02-06T10:57:23.358Z,1016.08
2019-02-06T10:58:23.377Z,1016.08
2019-02-06T10:59:23.394Z,1016.07
2019-02-06T11:00:23.538Z,1016.05
2019-02-06T11:01:23.446Z,1016.07
2019-02-06T11:02:23.455Z,1016.04
2019-02-06T11:03:23.483Z,1016.03
2019-02-06T11:04:23.490Z,1016.00
2019-02-06T11:05:23.508Z,1015.97
2019-02-06T11:06:23.539Z,1015.97
2019-02-06T11:07:23.549Z,1015.91
2019-02-06T11:08:23.576Z,1015.95
2019-02-06T11:09:23.589Z,1015.93
2019-02-06T11:10:23.663Z,1015.88
2019-02-06T11:11:23.636Z,1015.88
2019-02-06T11:12:24.659Z,1015.89
2019-02-06T11:13:23.670Z,1015.84
2019-02-06T11:14:23.692Z,1015.81
2019-02-06T11:15:23.750Z,1015.80
2019-02-06T11:16:23.737Z,1015.76
2019-02-06T11:17:23.853Z,1015.75
2019-02-06T11:18:23.785Z,1015.79
2019-02-06T11:19:23.809Z,1015.74
2019-02-06T11:20:23.836Z,1015.74
2019-02-06T11:21:23.858Z,1015.73
2019-02-06T11:22:23.881Z,1015.73
2019-02-06T11:23:23.897Z,1015.68
2019-02-06T11:24:26.670Z,1015.70
2019-02-06T11:25:23.946Z,1015.63
2019-02-06T11:26:23.968Z,1015.65
2019-02-06T11:27:23.995Z,1015.67
2019-02-06T11:28:24.022Z,1015.66
2019-02-06T11:29:24.061Z,1015.69
2019-02-06T11:30:24.073Z,1015.63
2019-02-06T11:31:24.095Z,1015.63
2019-02-06T11:32:24.140Z,1015.60
2019-02-06T11:33:24.151Z,1015.57
2019-02-06T11:34:24.271Z,1015.55
2019-02-06T11:35:24.219Z,1015.50
2019-02-06T11:36:24.554Z,1015.47
2019-02-06T11:37:24.262Z,1015.45
2019-02-06T11:38:24.295Z,1015.43
2019-02-06T11:39:24.314Z,1015.42
2019-02-06T11:40:24.355Z,1015.44
2019-02-06T11:41:24.381Z,1015.40
2019-02-06T11:42:24.405Z,1015.39
2019-02-06T11:43:24.457Z,1015.35
2019-02-06T11:44:24.464Z,1015.35
2019-02-06T11:45:24.499Z,1015.34
2019-02-06T11:46:24.637Z,1015.31
2019-02-06T11:48:24.578Z,1015.33
2019-02-06T11:49:24.596Z,1015.30
2019-02-06T11:50:24.623Z,1015.32
2019-02-06T11:51:24.680Z,1015.30
2019-02-06T11:52:24.679Z,1015.33
2019-02-06T11:53:26.513Z,1015.32
2019-02-06T11:54:24.740Z,1015.26
2019-02-06T11:55:27.212Z,1015.30
2019-02-06T11:56:24.792Z,1015.23
2019-02-06T11:57:24.828Z,1015.17
2019-02-06T11:58:24.845Z,1015.18
2019-02-06T11:59:24.888Z,1015.12
2019-02-06T12:00:24.918Z,1015.12
2019-02-06T12:01:24.934Z,1015.07
2019-02-06T12:02:24.958Z,1015.02
2019-02-06T12:03:25.043Z,1014.99
2019-02-06T12:04:25.015Z,1014.94
2019-02-06T12:05:25.035Z,1014.96
2019-02-06T12:06:25.063Z,1014.92
2019-02-06T12:07:25.100Z,1014.89
2019-02-06T12:08:25.124Z,1014.80
2019-02-06T12:09:25.142Z,1014.79
2019-02-06T12:10:25.184Z,1014.79
2019-02-06T12:11:25.194Z,1014.72
2019-02-06T12:12:25.224Z,1014.72
2019-02-06T12:13:25.244Z,1014.71
2019-02-06T12:14:25.280Z,1014.66
2019-02-06T12:15:25.291Z,1014.63
2019-02-06T12:16:25.447Z,1014.60
2019-02-06T12:17:25.347Z,1014.56
2019-02-06T12:18:25.364Z,1014.59
2019-02-06T12:19:25.405Z,1014.54
2019-02-06T12:20:25.498Z,1014.53
2019-02-06T12:21:25.433Z,1014.47
2019-02-06T12:22:25.462Z,1014.47
2019-02-06T12:23:32.260Z,1014.48
2019-02-06T12:24:25.541Z,1014.49
2019-02-06T12:25:25.529Z,1014.44
2019-02-06T12:26:25.559Z,1014.44
2019-02-06T12:27:25.571Z,1014.44
2019-02-06T12:28:25.596Z,1014.43
2019-02-06T12:29:25.622Z,1014.40
2019-02-06T12:30:25.631Z,1014.35
2019-02-06T12:31:25.655Z,1014.34
2019-02-06T12:32:25.674Z,1014.31
2019-02-06T12:33:25.701Z,1014.23
2019-02-06T12:34:25.721Z,1014.23
2019-02-06T12:35:25.739Z,1014.17
2019-02-06T12:36:25.761Z,1014.17
2019-02-06T12:37:25.787Z,1014.15
2019-02-06T12:38:25.797Z,1014.15
2019-02-06T12:39:25.821Z,1014.13
2019-02-06T12:40:25.844Z,1014.13
2019-02-06T12:41:25.872Z,1014.11
2019-02-06T12:42:25.953Z,1014.10
2019-02-06T12:43:25.910Z,1014.14
2019-02-06T12:44:25.919Z,1014.06
2019-02-06T12:45:25.934Z,1014.10
2019-02-06T12:46:25.959Z,1014.06
2019-02-06T12:47:26.906Z,1014.10
2019-02-06T12:48:25.999Z,1014.01
2019-02-06T12:49:26.017Z,1014.03
2019-02-06T12:50:26.036Z,1013.96
2019-02-06T12:51:26.169Z,1013.98
2019-02-06T12:52:26.099Z,1013.98
2019-02-06T12:53:26.242Z,1013.93
2019-02-06T12:54:26.117Z,1013.88
2019-02-06T12:55:26.132Z,1013.86
2019-02-06T12:56:26.153Z,1013.82
2019-02-06T12:57:36.297Z,1013.86
2019-02-06T12:58:26.433Z,1013.83
2019-02-06T12:59:26.221Z,1013.80
2019-02-06T13:00:26.226Z,1013.77
2019-02-06T13:01:26.258Z,1013.77
2019-02-06T13:02:26.264Z,1013.76
2019-02-06T13:03:26.294Z,1013.73
2019-02-06T13:04:26.307Z,1013.72
2019-02-06T13:05:26.322Z,1013.69
2019-02-06T13:06:26.337Z,1013.64
2019-02-06T13:07:26.356Z,1013.68
2019-02-06T13:08:26.377Z,1013.68
2019-02-06T13:09:26.489Z,1013.69
2019-02-06T13:10:33.921Z,1013.67
2019-02-06T13:11:26.461Z,1013.67
2019-02-06T13:12:27.345Z,1013.65
2019-02-06T13:13:26.494Z,1013.65
2019-02-06T13:14:26.494Z,1013.58
2019-02-06T13:15:26.503Z,1013.59
2019-02-06T13:16:26.536Z,1013.55
2019-02-06T13:17:26.541Z,1013.56
2019-02-06T13:18:26.564Z,1013.51
2019-02-06T13:19:26.671Z,1013.49
2019-02-06T13:20:26.612Z,1013.53
2019-02-06T13:21:26.655Z,1013.48
2019-02-06T13:22:26.638Z,1013.46
2019-02-06T13:23:26.659Z,1013.42
2019-02-06T13:24:26.669Z,1013.45
2019-02-06T13:25:26.701Z,1013.40
2019-02-06T13:26:26.714Z,1013.42
2019-02-06T13:27:26.724Z,1013.41
2019-02-06T13:28:26.757Z,1013.46
2019-02-06T13:29:26.776Z,1013.48
2019-02-06T13:30:26.777Z,1013.47
2019-02-06T13:31:26.904Z,1013.48
2019-02-06T13:32:26.828Z,1013.46
2019-02-06T13:33:26.854Z,1013.45
2019-02-06T13:34:26.861Z,1013.47
2019-02-06T13:35:26.879Z,1013.43
2019-02-06T13:36:26.885Z,1013.39
2019-02-06T13:37:26.901Z,1013.37
2019-02-06T13:38:26.929Z,1013.38
2019-02-06T13:39:26.946Z,1013.36
2019-02-06T13:40:26.960Z,1013.37
2019-02-06T13:41:26.986Z,1013.31
2019-02-06T13:42:27.006Z,1013.28
2019-02-06T13:43:27.012Z,1013.27
2019-02-06T13:44:27.041Z,1013.30
2019-02-06T13:45:27.057Z,1013.26
2019-02-06T13:46:27.087Z,1013.22
2019-02-06T13:47:27.086Z,1013.21
2019-02-06T13:48:27.106Z,1013.21
2019-02-06T13:49:27.125Z,1013.17
2019-02-06T13:50:27.139Z,1013.15
2019-02-06T13:51:27.223Z,1013.15
2019-02-06T13:52:27.173Z,1013.12
2019-02-06T13:53:27.209Z,1013.14
2019-02-06T13:54:27.229Z,1013.08
2019-02-06T13:55:27.235Z,1013.09
2019-02-06T13:56:27.267Z,1013.04
2019-02-06T13:57:33.903Z,1013.04
2019-02-06T13:58:27.308Z,1013.07
2019-02-06T13:59:27.305Z,1013.04
2019-02-06T14:00:27.323Z,1013.03
2019-02-06T14:01:27.395Z,1013.03
2019-02-06T14:02:27.367Z,1013.00
2019-02-06T14:03:28.842Z,1012.93
2019-02-06T14:04:27.402Z,1012.96
2019-02-06T14:05:27.416Z,1012.95
2019-02-06T14:06:27.429Z,1012.93
2019-02-06T14:07:27.451Z,1012.95
2019-02-06T14:08:27.469Z,1012.88
2019-02-06T14:09:27.481Z,1012.89
2019-02-06T14:10:27.496Z,1012.89
2019-02-06T14:11:27.532Z,1012.86
2019-02-06T14:12:27.555Z,1012.88
2019-02-06T14:13:27.552Z,1012.84
2019-02-06T14:14:27.587Z,1012.85
2019-02-06T14:15:27.595Z,1012.86
2019-02-06T14:16:27.615Z,1012.85
2019-02-06T14:17:27.627Z,1012.83
2019-02-06T14:18:27.698Z,1012.83
2019-02-06T14:19:27.667Z,1012.75
2019-02-06T14:20:27.675Z,1012.72
2019-02-06T14:21:27.697Z,1012.80
2019-02-06T14:22:27.718Z,1012.73
2019-02-06T14:23:27.737Z,1012.76
2019-02-06T14:24:27.753Z,1012.75
2019-02-06T14:25:27.794Z,1012.71
2019-02-06T14:26:27.792Z,1012.71
2019-02-06T14:27:27.804Z,1012.69
2019-02-06T14:28:27.825Z,1012.67
2019-02-06T14:29:27.838Z,1012.62
2019-02-06T14:30:27.854Z,1012.62
2019-02-06T14:31:27.877Z,1012.60
2019-02-06T14:32:27.911Z,1012.61
2019-02-06T14:33:28.850Z,1012.58
2019-02-06T14:34:27.929Z,1012.58
2019-02-06T14:35:27.958Z,1012.53
2019-02-06T14:36:27.959Z,1012.52
2019-02-06T14:37:28.007Z,1012.49
2019-02-06T14:38:27.996Z,1012.50
2019-02-06T14:39:28.018Z,1012.46
2019-02-06T14:40:28.039Z,1012.45
2019-02-06T14:41:28.053Z,1012.47
2019-02-06T14:42:28.060Z,1012.43
2019-02-06T14:43:28.135Z,1012.43
2019-02-06T14:44:28.115Z,1012.37
2019-02-06T14:45:28.151Z,1012.38
2019-02-06T14:46:28.139Z,1012.36
2019-02-06T14:47:28.160Z,1012.31
2019-02-06T14:48:28.164Z,1012.28
2019-02-06T14:49:28.198Z,1012.28
2019-02-06T14:50:28.198Z,1012.29
2019-02-06T14:51:28.220Z,1012.27
2019-02-06T14:52:28.257Z,1012.25
2019-02-06T14:53:28.328Z,1012.23
2019-02-06T14:54:28.272Z,1012.21
2019-02-06T14:55:28.300Z,1012.20
2019-02-06T14:56:28.307Z,1012.18
2019-02-06T14:57:28.331Z,1012.13
2019-02-06T14:58:28.364Z,1012.14
2019-02-06T14:59:28.371Z,1012.09
2019-02-06T15:00:28.381Z,1012.05
2019-02-06T15:01:28.432Z,1012.06
2019-02-06T15:02:28.415Z,1012.04
2019-02-06T15:03:28.483Z,1011.98
2019-02-06T15:04:28.448Z,1011.99
2019-02-06T15:05:28.457Z,1011.98
2019-02-06T15:06:28.501Z,1011.98
2019-02-06T15:07:28.493Z,1011.97
2019-02-06T15:08:28.510Z,1011.94
2019-02-06T15:09:28.561Z,1011.95
2019-02-06T15:10:28.548Z,1011.92
2019-02-06T15:11:28.563Z,1011.94
2019-02-06T15:12:28.577Z,1011.87
2019-02-06T15:13:28.610Z,1011.91
2019-02-06T15:14:28.613Z,1011.89
2019-02-06T15:15:28.718Z,1011.87
2019-02-06T15:16:28.656Z,1011.85
2019-02-06T15:17:28.661Z,1011.83
2019-02-06T15:18:28.677Z,1011.82
2019-02-06T15:19:28.711Z,1011.84
2019-02-06T15:20:28.733Z,1011.83
2019-02-06T15:21:28.745Z,1011.79
2019-02-06T15:22:28.743Z,1011.83
2019-02-06T15:23:33.005Z,1011.84
2019-02-06T15:24:28.787Z,1011.84
2019-02-06T15:25:31.081Z,1011.83
2019-02-06T15:26:28.814Z,1011.82
2019-02-06T15:27:28.827Z,1011.81
2019-02-06T15:28:28.841Z,1011.77
2019-02-06T15:29:28.867Z,1011.75
2019-02-06T15:30:28.886Z,1011.74
2019-02-06T15:31:28.928Z,1011.74
2019-02-06T15:32:28.935Z,1011.79
2019-02-06T15:33:28.923Z,1011.75
2019-02-06T15:34:28.951Z,1011.76
2019-02-06T15:35:29.002Z,1011.78
2019-02-06T15:36:28.977Z,1011.79
2019-02-06T15:37:28.998Z,1011.79
2019-02-06T15:38:29.025Z,1011.84
2019-02-06T15:39:29.031Z,1011.80
2019-02-06T15:40:29.047Z,1011.81
2019-02-06T15:41:31.079Z,1011.80
2019-02-06T15:42:29.090Z,1011.76
2019-02-06T15:43:29.096Z,1011.76
2019-02-06T15:44:29.166Z,1011.75
2019-02-06T15:45:29.212Z,1011.74
2019-02-06T15:46:29.141Z,1011.73
2019-02-06T15:47:29.319Z,1011.71
2019-02-06T15:48:29.286Z,1011.71
2019-02-06T15:49:29.446Z,1011.73
2019-02-06T15:50:29.462Z,1011.72
2019-02-06T15:51:29.430Z,1011.75
2019-02-06T15:52:29.264Z,1011.72
2019-02-06T15:53:29.436Z,1011.76
2019-02-06T15:54:29.457Z,1011.73
2019-02-06T15:55:29.486Z,1011.74
2019-02-06T15:56:29.473Z,1011.75
2019-02-06T15:57:29.501Z,1011.74
2019-02-06T15:58:29.507Z,1011.71
2019-02-06T15:59:29.500Z,1011.68
2019-02-06T16:00:29.553Z,1011.66
2019-02-06T16:01:29.624Z,1011.65
2019-02-06T16:02:29.550Z,1011.63
2019-02-06T16:03:29.522Z,1011.58
2019-02-06T16:04:29.515Z,1011.58
2019-02-06T16:05:29.578Z,1011.57
2019-02-06T16:06:29.474Z,1011.56
2019-02-06T16:07:29.566Z,1011.55
2019-02-06T16:08:29.521Z,1011.56
2019-02-06T16:09:29.565Z,1011.53
2019-02-06T16:10:29.624Z,1011.55
2019-02-06T16:11:29.562Z,1011.56
2019-02-06T16:12:29.573Z,1011.49
2019-02-06T16:13:29.589Z,1011.50
2019-02-06T16:14:29.613Z,1011.49
2019-02-06T16:15:29.614Z,1011.50
2019-02-06T16:16:29.660Z,1011.50
2019-02-06T16:17:29.659Z,1011.52
2019-02-06T16:18:29.669Z,1011.50
2019-02-06T16:19:29.689Z,1011.51
2019-02-06T16:20:29.783Z,1011.51
2019-02-06T16:21:29.717Z,1011.47
2019-02-06T16:22:29.742Z,1011.48
2019-02-06T16:23:29.751Z,1011.47
2019-02-06T16:24:32.493Z,1011.48
2019-02-06T16:25:29.781Z,1011.45
2019-02-06T16:26:29.803Z,1011.44
2019-02-06T16:27:29.813Z,1011.45
2019-02-06T16:28:29.876Z,1011.46
2019-02-06T16:29:29.847Z,1011.46
2019-02-06T16:30:29.875Z,1011.47
2019-02-06T16:31:29.885Z,1011.45
2019-02-06T16:32:29.893Z,1011.44
2019-02-06T16:33:29.917Z,1011.46
2019-02-06T16:34:29.930Z,1011.45
2019-02-06T16:35:29.966Z,1011.45
2019-02-06T16:36:29.981Z,1011.48
2019-02-06T16:37:30.046Z,1011.45
2019-02-06T16:38:29.996Z,1011.44
2019-02-06T16:39:30.007Z,1011.37
2019-02-06T16:40:30.028Z,1011.37
2019-02-06T16:41:30.062Z,1011.38
2019-02-06T16:42:30.093Z,1011.37
2019-02-06T16:43:30.088Z,1011.38
2019-02-06T16:44:30.087Z,1011.35
2019-02-06T16:45:30.112Z,1011.35
2019-02-06T16:46:30.146Z,1011.33
2019-02-06T16:47:30.155Z,1011.31
2019-02-06T16:48:30.164Z,1011.27
2019-02-06T16:49:30.167Z,1011.30
2019-02-06T16:50:30.183Z,1011.25
2019-02-06T16:51:30.206Z,1011.25
2019-02-06T16:52:30.298Z,1011.21
2019-02-06T16:53:30.242Z,1011.20
2019-02-06T16:54:30.273Z,1011.20
2019-02-06T16:55:30.298Z,1011.21
2019-02-06T16:56:30.294Z,1011.19
2019-02-06T16:57:30.311Z,1011.20
2019-02-06T16:58:30.314Z,1011.18
2019-02-06T16:59:30.339Z,1011.22
2019-02-06T17:00:30.340Z,1011.22
2019-02-06T17:01:30.366Z,1011.27
2019-02-06T17:02:30.475Z,1011.20
2019-02-06T17:03:30.406Z,1011.18
2019-02-06T17:04:30.403Z,1011.16
2019-02-06T17:05:31.487Z,1011.14
2019-02-06T17:06:30.437Z,1011.12
2019-02-06T17:07:30.474Z,1011.08
2019-02-06T17:08:30.483Z,1011.10
2019-02-06T17:09:30.498Z,1011.09
2019-02-06T17:10:30.537Z,1011.11
2019-02-06T17:11:30.520Z,1011.09
2019-02-06T17:12:30.645Z,1011.15
2019-02-06T17:13:30.546Z,1011.11
2019-02-06T17:14:30.573Z,1011.17
2019-02-06T17:15:30.585Z,1011.18
2019-02-06T17:16:30.593Z,1011.15
2019-02-06T17:17:30.610Z,1011.16
2019-02-06T17:18:30.633Z,1011.19
2019-02-06T17:19:30.646Z,1011.16
2019-02-06T17:20:30.663Z,1011.17
2019-02-06T17:21:30.692Z,1011.15
2019-02-06T17:22:30.715Z,1011.16
2019-02-06T17:23:30.710Z,1011.23
2019-02-06T17:24:30.730Z,1011.24
2019-02-06T17:25:31.073Z,1011.25
2019-02-06T17:26:30.751Z,1011.29
2019-02-06T17:27:30.779Z,1011.29
2019-02-06T17:28:30.782Z,1011.33
2019-02-06T17:29:30.799Z,1011.31
2019-02-06T17:30:30.811Z,1011.28
2019-02-06T17:31:30.831Z,1011.29
2019-02-06T17:32:30.936Z,1011.27
2019-02-06T17:33:30.858Z,1011.29
2019-02-06T17:34:30.874Z,1011.28
2019-02-06T17:35:30.896Z,1011.31
2019-02-06T17:36:30.905Z,1011.27
2019-02-06T17:37:30.922Z,1011.26
2019-02-06T17:38:30.934Z,1011.28
2019-02-06T17:39:30.964Z,1011.29
2019-02-06T17:40:30.970Z,1011.28
2019-02-06T17:41:30.983Z,1011.27
2019-02-06T17:42:31.082Z,1011.30
2019-02-06T17:43:31.010Z,1011.29
2019-02-06T17:44:31.035Z,1011.26
2019-02-06T17:45:31.044Z,1011.28
2019-02-06T17:46:31.054Z,1011.26
2019-02-06T17:47:31.118Z,1011.30
2019-02-06T17:48:31.095Z,1011.27
2019-02-06T17:49:31.104Z,1011.22
2019-02-06T17:50:31.119Z,1011.22
2019-02-06T17:51:31.137Z,1011.23
2019-02-06T17:52:31.149Z,1011.19
2019-02-06T17:53:31.172Z,1011.21
2019-02-06T17:54:31.178Z,1011.21
2019-02-06T17:55:31.190Z,1011.19
2019-02-06T17:56:31.214Z,1011.18
2019-02-06T17:57:31.284Z,1011.17
2019-02-06T17:58:31.250Z,1011.16
2019-02-06T17:59:31.262Z,1011.12
2019-02-06T18:00:31.276Z,1011.14
2019-02-06T18:01:31.294Z,1011.08
2019-02-06T18:02:31.307Z,1011.09
2019-02-06T18:03:31.326Z,1011.10
2019-02-06T18:04:31.445Z,1011.05
2019-02-06T18:05:31.343Z,1011.09
2019-02-06T18:06:31.363Z,1011.05
2019-02-06T18:07:31.451Z,1011.08
2019-02-06T18:08:31.436Z,1011.05
2019-02-06T18:09:31.419Z,1011.04
2019-02-06T18:10:31.422Z,1011.06
2019-02-06T18:11:31.439Z,1011.03
2019-02-06T18:12:31.461Z,1011.05
2019-02-06T18:13:31.486Z,1011.05
2019-02-06T18:14:31.523Z,1011.05
2019-02-06T18:15:31.511Z,1011.05
2019-02-06T18:16:31.519Z,1011.03
2019-02-06T18:17:31.534Z,1011.03
2019-02-06T18:18:31.543Z,1010.98
2019-02-06T18:19:31.570Z,1010.95
2019-02-06T18:20:31.570Z,1010.91
2019-02-06T18:21:31.590Z,1010.91
2019-02-06T18:22:31.620Z,1010.90
2019-02-06T18:23:31.642Z,1010.85
2019-02-06T18:24:31.638Z,1010.82
2019-02-06T18:25:31.651Z,1010.82
2019-02-06T18:26:31.668Z,1010.81
2019-02-06T18:27:31.691Z,1010.84
2019-02-06T18:28:31.708Z,1010.85
2019-02-06T18:29:31.728Z,1010.79
2019-02-06T18:30:31.734Z,1010.79
2019-02-06T18:31:31.758Z,1010.84
2019-02-06T18:32:31.758Z,1010.84
2019-02-06T18:33:31.769Z,1010.89
2019-02-06T18:34:31.784Z,1010.85
2019-02-06T18:35:31.789Z,1010.85
2019-02-06T18:36:31.845Z,1010.83
2019-02-06T18:37:31.833Z,1010.82
2019-02-06T18:38:32.299Z,1010.82
2019-02-06T18:39:31.855Z,1010.79
2019-02-06T18:40:31.866Z,1010.77
2019-02-06T18:41:31.905Z,1010.76
2019-02-06T18:42:37.202Z,1010.76
2019-02-06T18:43:31.922Z,1010.76
2019-02-06T18:44:31.936Z,1010.75
2019-02-06T18:45:31.962Z,1010.76
2019-02-06T18:46:31.967Z,1010.76
2019-02-06T18:47:31.970Z,1010.74
2019-02-06T18:48:31.986Z,1010.76
2019-02-06T18:49:32.012Z,1010.76
2019-02-06T18:50:32.050Z,1010.74
2019-02-06T18:51:32.038Z,1010.78
2019-02-06T18:52:32.045Z,1010.72
2019-02-06T18:53:32.079Z,1010.69
2019-02-06T18:54:32.098Z,1010.70
2019-02-06T18:55:32.095Z,1010.70
2019-02-06T18:56:32.119Z,1010.69
2019-02-06T18:57:32.139Z,1010.69
2019-02-06T18:58:32.137Z,1010.70
2019-02-06T18:59:32.231Z,1010.70
2019-02-06T19:00:32.465Z,1010.70
2019-02-06T19:01:32.182Z,1010.65
2019-02-06T19:02:32.192Z,1010.68
2019-02-06T19:03:32.242Z,1010.68
2019-02-06T19:04:32.321Z,1010.64
2019-02-06T19:05:32.241Z,1010.65
2019-02-06T19:06:32.271Z,1010.66
2019-02-06T19:07:32.302Z,1010.66
2019-02-06T19:08:32.309Z,1010.67
2019-02-06T19:09:32.306Z,1010.69
2019-02-06T19:10:32.311Z,1010.69
2019-02-06T19:11:32.346Z,1010.67
2019-02-06T19:12:32.344Z,1010.70
2019-02-06T19:13:32.373Z,1010.68
2019-02-06T19:14:32.390Z,1010.66
2019-02-06T19:15:32.387Z,1010.69
2019-02-06T19:16:32.404Z,1010.64
2019-02-06T19:17:32.424Z,1010.67
2019-02-06T19:18:32.430Z,1010.60
2019-02-06T19:19:32.443Z,1010.62
2019-02-06T19:20:32.474Z,1010.61
2019-02-06T19:21:32.489Z,1010.59
2019-02-06T19:22:33.036Z,1010.54
2019-02-06T19:23:32.574Z,1010.56
2019-02-06T19:24:32.549Z,1010.53
2019-02-06T19:25:32.542Z,1010.52
2019-02-06T19:26:32.544Z,1010.47
2019-02-06T19:27:32.557Z,1010.47
2019-02-06T19:28:32.574Z,1010.43
2019-02-06T19:29:32.606Z,1010.47
2019-02-06T19:30:32.605Z,1010.48
2019-02-06T19:31:32.627Z,1010.51
2019-02-06T19:32:32.633Z,1010.51
2019-02-06T19:33:32.696Z,1010.50
2019-02-06T19:34:32.678Z,1010.44
2019-02-06T19:35:32.691Z,1010.45
2019-02-06T19:36:32.695Z,1010.36
2019-02-06T19:37:35.128Z,1010.43
2019-02-06T19:38:32.738Z,1010.41
2019-02-06T19:39:32.741Z,1010.37
2019-02-06T19:40:32.760Z,1010.37
2019-02-06T19:41:32.759Z,1010.37
2019-02-06T19:42:32.776Z,1010.37
2019-02-06T19:43:32.830Z,1010.36
2019-02-06T19:44:32.823Z,1010.35
2019-02-06T19:45:32.829Z,1010.32
2019-02-06T19:46:32.837Z,1010.34
2019-02-06T19:47:32.850Z,1010.33
2019-02-06T19:48:32.881Z,1010.32
2019-02-06T19:49:32.889Z,1010.34
2019-02-06T19:50:32.905Z,1010.33
2019-02-06T19:51:32.919Z,1010.33
2019-02-06T19:52:32.935Z,1010.26
2019-02-06T19:53:32.944Z,1010.21
2019-02-06T19:54:32.966Z,1010.26
2019-02-06T19:55:33.052Z,1010.23
2019-02-06T19:56:32.987Z,1010.23
2019-02-06T19:57:32.994Z,1010.18
2019-02-06T19:58:33.014Z,1010.16
2019-02-06T19:59:33.029Z,1010.09
2019-02-06T20:00:33.042Z,1010.08
2019-02-06T20:01:33.056Z,1010.06
2019-02-06T20:02:33.069Z,1010.05
2019-02-06T20:03:33.082Z,1010.02
2019-02-06T20:04:33.107Z,1009.99
2019-02-06T20:05:33.235Z,1010.00
2019-02-06T20:06:33.134Z,1010.02
2019-02-06T20:07:33.144Z,1009.99
2019-02-06T20:08:33.155Z,1009.98
2019-02-06T20:09:33.194Z,1010.01
2019-02-06T20:10:33.205Z,1009.99
2019-02-06T20:11:33.207Z,1009.99
2019-02-06T20:12:33.226Z,1009.99
2019-02-06T20:13:33.225Z,1009.98
2019-02-06T20:14:33.249Z,1009.95
2019-02-06T20:15:33.400Z,1009.96
2019-02-06T20:16:33.273Z,1009.96
2019-02-06T20:17:33.289Z,1009.92
2019-02-06T20:18:33.298Z,1009.91
2019-02-06T20:19:33.313Z,1009.92
2019-02-06T20:20:33.331Z,1009.89
2019-02-06T20:21:33.357Z,1009.87
2019-02-06T20:22:33.372Z,1009.84
2019-02-06T20:23:33.411Z,1009.83
2019-02-06T20:24:33.390Z,1009.81
2019-02-06T20:25:33.446Z,1009.86
2019-02-06T20:26:33.413Z,1009.85
2019-02-06T20:27:33.423Z,1009.85
2019-02-06T20:28:33.454Z,1009.86
2019-02-06T20:29:33.477Z,1009.85
2019-02-06T20:30:33.480Z,1009.81
2019-02-06T20:31:33.489Z,1009.79
2019-02-06T20:32:33.502Z,1009.75
2019-02-06T20:33:33.515Z,1009.76
2019-02-06T20:34:33.542Z,1009.71
2019-02-06T20:35:33.602Z,1009.73
2019-02-06T20:36:33.563Z,1009.72
2019-02-06T20:37:33.579Z,1009.67
2019-02-06T20:38:33.574Z,1009.67
2019-02-06T20:39:33.608Z,1009.63
2019-02-06T20:40:33.623Z,1009.62
2019-02-06T20:41:33.632Z,1009.64
2019-02-06T20:42:33.631Z,1009.64
2019-02-06T20:43:33.650Z,1009.64
2019-02-06T20:44:33.662Z,1009.67
2019-02-06T20:45:33.857Z,1009.64
2019-02-06T20:46:33.702Z,1009.67
2019-02-06T20:47:33.717Z,1009.69
2019-02-06T20:48:33.728Z,1009.68
2019-02-06T20:49:33.745Z,1009.65
2019-02-06T20:50:33.754Z,1009.64
2019-02-06T20:51:33.766Z,1009.58
2019-02-06T20:52:33.775Z,1009.60
2019-02-06T20:53:33.793Z,1009.63
2019-02-06T20:54:33.803Z,1009.67
2019-02-06T20:55:33.820Z,1009.69
2019-02-06T20:56:33.845Z,1009.67
2019-02-06T20:57:33.862Z,1009.69
2019-02-06T20:58:33.868Z,1009.71
2019-02-06T20:59:33.872Z,1009.69
2019-02-06T21:00:33.948Z,1009.67
2019-02-06T21:01:33.916Z,1009.72
2019-02-06T21:02:33.923Z,1009.67
2019-02-06T21:03:33.928Z,1009.65
2019-02-06T21:04:33.947Z,1009.63
2019-02-06T21:05:33.948Z,1009.66
2019-02-06T21:06:33.967Z,1009.68
2019-02-06T21:07:33.982Z,1009.67
2019-02-06T21:08:33.997Z,1009.69
2019-02-06T21:09:34.012Z,1009.70
2019-02-06T21:10:34.084Z,1009.72
2019-02-06T21:11:34.051Z,1009.67
2019-02-06T21:12:34.066Z,1009.69
2019-02-06T21:13:34.069Z,1009.62
2019-02-06T21:14:34.138Z,1009.69
2019-02-06T21:15:34.093Z,1009.67
2019-02-06T21:16:34.109Z,1009.66
2019-02-06T21:17:34.128Z,1009.68
2019-02-06T21:18:34.134Z,1009.67
2019-02-06T21:19:34.150Z,1009.65
2019-02-06T21:20:34.219Z,1009.66
2019-02-06T21:21:34.186Z,1009.61
2019-02-06T21:22:34.195Z,1009.59
2019-02-06T21:23:34.207Z,1009.60
2019-02-06T21:24:34.211Z,1009.54
2019-02-06T21:25:34.234Z,1009.56
2019-02-06T21:26:34.242Z,1009.61
2019-02-06T21:27:34.281Z,1009.62
2019-02-06T21:28:34.286Z,1009.62
2019-02-06T21:29:34.289Z,1009.63
2019-02-06T21:30:34.300Z,1009.60
2019-02-06T21:31:34.309Z,1009.59
2019-02-06T21:32:34.325Z,1009.58
2019-02-06T21:33:34.414Z,1009.62
2019-02-06T21:34:34.349Z,1009.62
2019-02-06T21:35:34.365Z,1009.60
2019-02-06T21:36:34.385Z,1009.57
2019-02-06T21:37:34.394Z,1009.55
2019-02-06T21:38:34.408Z,1009.55
2019-02-06T21:39:34.422Z,1009.52
2019-02-06T21:40:34.612Z,1009.53
2019-02-06T21:41:34.467Z,1009.61
2019-02-06T21:42:35.789Z,1009.55
2019-02-06T21:43:43.889Z,1009.54
2019-02-06T21:44:34.492Z,1009.50
2019-02-06T21:45:34.549Z,1009.49
2019-02-06T21:46:34.513Z,1009.44
2019-02-06T21:47:34.540Z,1009.43
2019-02-06T21:48:34.544Z,1009.46
2019-02-06T21:49:34.555Z,1009.49
2019-02-06T21:50:34.594Z,1009.44
2019-02-06T21:51:34.585Z,1009.40
2019-02-06T21:52:34.597Z,1009.39
2019-02-06T21:53:34.932Z,1009.39
2019-02-06T21:54:34.637Z,1009.40
2019-02-06T21:55:34.711Z,1009.42
2019-02-06T21:56:34.661Z,1009.38
2019-02-06T21:57:34.676Z,1009.40
2019-02-06T21:58:34.686Z,1009.35
2019-02-06T21:59:34.699Z,1009.37
2019-02-06T22:00:34.705Z,1009.35
2019-02-06T22:01:34.723Z,1009.36
2019-02-06T22:02:34.731Z,1009.34
2019-02-06T22:03:34.759Z,1009.33
2019-02-06T22:04:34.757Z,1009.26
2019-02-06T22:05:34.823Z,1009.28
2019-02-06T22:06:34.789Z,1009.23
2019-02-06T22:07:34.803Z,1009.11
2019-02-06T22:08:34.815Z,1009.07
2019-02-06T22:09:34.828Z,1009.03
2019-02-06T22:10:34.843Z,1009.02
2019-02-06T22:11:34.867Z,1009.00
2019-02-06T22:12:34.868Z,1009.00
2019-02-06T22:13:34.888Z,1008.97
2019-02-06T22:14:34.921Z,1008.99
2019-02-06T22:15:34.997Z,1008.96
2019-02-06T22:16:34.930Z,1008.94
2019-02-06T22:17:34.939Z,1008.92
2019-02-06T22:18:34.958Z,1008.90
2019-02-06T22:19:34.978Z,1008.91
2019-02-06T22:20:34.978Z,1008.94
2019-02-06T22:21:34.991Z,1008.93
2019-02-06T22:22:35.013Z,1009.01
2019-02-06T22:23:35.034Z,1009.04
2019-02-06T22:24:35.049Z,1009.02
2019-02-06T22:25:35.120Z,1009.03
2019-02-06T22:26:35.052Z,1008.99
2019-02-06T22:27:35.084Z,1008.94
2019-02-06T22:28:35.086Z,1008.97
2019-02-06T22:29:35.096Z,1008.91
2019-02-06T22:30:35.119Z,1008.88
2019-02-06T22:31:35.127Z,1008.85
2019-02-06T22:32:35.154Z,1008.80
2019-02-06T22:33:35.152Z,1008.82
2019-02-06T22:34:35.177Z,1008.79
2019-02-06T22:35:35.179Z,1008.79
2019-02-06T22:36:35.202Z,1008.84
2019-02-06T22:37:35.250Z,1008.83
2019-02-06T22:38:35.236Z,1008.86
2019-02-06T22:39:35.227Z,1008.82
2019-02-06T22:40:35.355Z,1008.83
2019-02-06T22:41:35.262Z,1008.82
2019-02-06T22:42:35.268Z,1008.79
2019-02-06T22:43:35.281Z,1008.80
2019-02-06T22:44:35.308Z,1008.83
2019-02-06T22:45:35.306Z,1008.76
2019-02-06T22:46:35.341Z,1008.74
2019-02-06T22:47:35.336Z,1008.73
2019-02-06T22:48:35.356Z,1008.71
2019-02-06T22:49:35.375Z,1008.70
2019-02-06T22:50:35.485Z,1008.70
2019-02-06T22:51:35.387Z,1008.78